Date,TemperatureHighF,TemperatureAvgF,TemperatureLowF,DewpointHighF,DewpointAvgF,DewpointLowF,HumidityHigh,HumidityAvg,HumidityLow,PressureMaxIn,PressureMinIn,WindSpeedMaxMPH,WindSpeedAvgMPH,GustSpeedMaxMPH,PrecipitationSumIn
2013-9-1,84.3,71.4,66.4,73.0,65.6,62.0,87,82,65,29.98,29.86,0,0,0,0.86
2013-9-2,83.5,73.2,66.5,71.0,66.4,61.0,88,80,61,29.98,29.88,0,0,0,0.16
2013-9-3,83.0,72.8,65.4,69.0,63.4,60.0,87,74,50,30.05,29.88,0,0,0,0.01
2013-9-4,79.9,69.8,60.4,66.0,60.8,56.0,85,74,53,30.17,30.04,0,0,0,0.00
2013-9-5,80.4,70.4,61.8,66.0,61.1,57.0,86,73,48,30.19,30.12,0,0,0,0.00
2013-9-6,77.0,68.3,60.0,63.0,58.6,55.0,84,72,53,30.28,30.16,0,0,0,0.00
2013-9-7,77.0,68.0,58.8,65.0,60.3,54.0,85,77,62,30.22,30.05,0,0,0,0.00
2013-9-8,82.4,71.1,61.7,67.0,62.5,57.0,87,75,49,30.07,30.00,0,0,0,0.00
2013-9-9,82.9,72.6,64.2,69.0,63.9,59.0,86,75,55,30.22,30.07,0,0,0,0.00
2013-9-10,82.7,72.3,63.0,69.0,64.0,58.0,87,76,56,30.31,30.21,0,0,0,0.00
2013-9-11,83.0,73.3,66.8,71.0,66.0,62.0,87,78,62,30.28,30.15,0,0,0,0.01
2013-9-12,84.2,73.1,66.1,70.0,65.8,62.0,87,78,58,30.14,29.91,0,0,0,0.00
2013-9-13,78.5,69.7,59.7,65.0,56.2,49.0,85,64,39,29.99,29.87,7,1,0,0.00
2013-9-14,70.8,60.9,51.9,55.0,49.8,46.0,81,68,48,30.21,30.00,8,0,0,0.00
2013-9-15,73.1,62.6,51.8,61.0,54.4,47.0,86,75,58,30.32,30.20,4,0,0,0.00
2013-9-16,80.6,68.1,58.1,63.0,58.1,53.0,87,72,48,30.26,30.14,5,0,0,0.00
2013-9-17,69.9,64.3,58.8,57.0,53.3,51.0,79,68,54,30.39,30.26,7,1,0,0.00
2013-9-18,70.0,62.5,56.4,57.0,52.2,49.0,80,70,57,30.39,30.25,4,0,0,0.00
2013-9-19,73.6,65.4,59.8,63.0,57.8,54.0,84,77,64,30.28,30.16,2,0,0,0.00
2013-9-20,80.3,68.8,60.1,65.0,60.8,55.0,87,77,54,30.17,29.98,2,0,0,0.00
2013-9-21,71.0,67.8,63.0,65.0,62.7,59.0,86,83,79,30.01,29.78,2,0,0,1.74
2013-9-22,69.9,60.1,53.1,59.0,53.9,48.0,87,80,54,30.01,29.80,6,0,0,0.01
2013-9-23,68.2,59.7,52.7,57.0,51.4,48.0,84,75,59,30.16,30.01,4,0,0,0.00
2013-9-24,72.6,63.2,55.6,59.0,55.0,51.0,85,75,54,30.17,30.01,1,0,0,0.00
2013-9-25,67.5,60.8,57.2,59.0,55.4,52.0,86,82,71,30.02,29.95,1,0,0,0.16
2013-9-26,70.9,62.2,55.9,57.0,53.3,49.0,86,74,48,30.14,29.97,8,0,0,0.00
2013-9-27,70.7,60.9,52.5,55.0,51.5,48.0,86,73,52,30.28,30.14,5,0,0,0.01
2013-9-28,68.2,59.8,53.4,55.0,51.0,48.0,85,74,55,30.34,30.25,7,0,0,0.00
2013-9-29,68.9,59.7,51.4,56.0,52.0,46.0,84,76,60,30.28,30.12,2,0,0,0.00
2013-9-30,70.6,61.4,51.5,58.0,52.8,47.0,86,74,51,30.19,30.07,3,0,0,0.00